IV3CGM-13 Weather Reports


Display with metric or nautical units.
time (UTC)temp
F
wind
direction
speed
MPH
gust
MPH
rain 1hr
in
rain 24hr
in
rain mn
in
humidity
%
barometer
mb
20260906073312 79 166 5.0 6.0 0.00 0.00 0.00 63 1023.0
20260906072144 81 180 2.0 3.0 0.00 0.00 0.00 58 1023.0
20260906070928 78 6 2.0 2.0 0.00 0.00 0.00 61 1022.8
20260906065747 78 324 2.0 3.0 0.00 0.00 0.00 61 1022.6
20260906064620 77 324 3.0 3.0 0.00 0.00 0.00 65 1022.7
20260906063452 76 311 2.0 5.0 0.00 0.00 0.00 63 1022.6
20260906062325 75 346 2.0 4.0 0.00 0.00 0.00 64 1022.5
20260906061108 74 354 3.0 5.0 0.00 0.00 0.00 65 1022.4
20260906055927 73 295 2.0 3.0 0.00 0.00 0.00 71 1022.4
20260906054759 72 294 2.0 2.0 0.00 0.00 0.00 75 1022.3
20260906053631 72 294 0.0 2.0 0.00 0.00 0.00 74 1022.1
20260906052504 71 294 2.0 3.0 0.00 0.00 0.00 72 1022.0
20260906051336 70 294 4.0 4.0 0.00 0.00 0.00 75 1021.9
20260906050209 69 296 3.0 4.0 0.00 0.00 0.00 77 1021.8
20260906045054 68 296 4.0 5.0 0.00 0.00 0.00 81 1021.7
20260906043913 69 294 4.0 4.0 0.00 0.00 0.00 78 1021.7
20260906042745 69 295 4.0 5.0 0.00 0.00 0.00 79 1021.7
20260906041617 68 294 4.0 4.0 0.00 0.00 0.00 80 1021.5
20260906040450 68 294 2.0 2.0 0.00 0.00 0.00 79 1021.5
20260906035323 68 294 2.0 3.0 0.00 0.00 0.00 81 1021.4
20260906034155 69 294 3.0 4.0 0.00 0.00 0.00 77 1021.3
20260906033028 69 294 4.0 5.0 0.00 0.00 0.00 76 1021.2
20260906031847 69 306 2.0 5.0 0.00 0.00 0.00 78 1021.2
20260906030719 69 300 5.0 5.0 0.00 0.00 0.00 78 1021.0
20260906025551 69 306 4.0 4.0 0.00 0.00 0.00 79 1020.9
20260906024424 70 306 4.0 5.0 0.00 0.00 0.00 77 1020.9
20260906023207 70 276 3.0 4.0 0.00 0.00 0.00 76 1020.9
20260906022026 71 198 2.0 3.0 0.00 0.00 0.00 73 1020.9
20260906020859 74 162 3.0 5.0 0.00 0.00 0.00 66 1020.9
20260906015732 74 289 4.0 6.0 0.00 0.00 0.00 64 1020.7
20260906014604 74 313 5.0 6.0 0.00 0.00 0.00 64 1020.5
20260906013347 74 313 5.0 12.0 0.00 0.00 0.00 64 1020.6
20260906012206 75 354 5.0 9.0 0.00 0.00 0.00 64 1020.7
20260906011039 75 340 9.0 9.0 0.00 0.00 0.00 62 1020.6
20260906005911 74 12 6.0 7.0 0.00 0.00 0.00 62 1020.5
20260906004744 74 283 5.0 7.0 0.00 0.00 0.00 64 1020.5
20260906003615 74 299 3.0 7.0 0.00 0.00 0.00 65 1020.6
20260906002448 75 342 4.0 7.0 0.00 0.00 0.00 63 1020.6
20260906001333 75 317 5.0 7.0 0.00 0.00 0.00 62 1020.6
20260906000152 74 306 5.0 6.0 0.00 0.00 0.00 64 1020.6
20260905235024 73 295 6.0 6.0 0.00 0.00 0.00 65 1020.6
20260905233857 71 312 3.0 3.0 0.00 0.00 0.00 72 1020.5
20260905232729 71 348 0.0 3.0 0.00 0.00 0.00 76 1020.6
20260905231513 72 271 0.0 4.0 0.00 0.00 0.00 74 1020.6
20260905230332 73 300 4.0 5.0 0.00 0.00 0.00 71 1020.5
20260905225204 72 290 4.0 5.0 0.00 0.00 0.00 73 1020.5
20260905224037 71 288 4.0 4.0 0.00 0.00 0.00 74 1020.3
20260905222857 72 290 5.0 5.0 0.00 0.00 0.00 72 1020.2
20260905221640 72 301 4.0 6.0 0.00 0.00 0.00 71 1020.1
20260905220459 72 306 5.0 5.0 0.00 0.00 0.00 76 1020.1
20260905215331 72 306 5.0 6.0 0.00 0.00 0.00 72 1020.1
20260905214204 72 296 4.0 4.0 0.00 0.00 0.00 75 1020.0
20260905213036 72 296 4.0 5.0 0.00 0.00 0.00 74 1019.9
20260905211819 72 301 4.0 5.0 0.00 0.00 0.00 75 1019.8
20260905210637 72 301 5.0 6.0 0.00 0.00 0.00 73 1019.9
20260905205510 73 299 5.0 5.0 0.00 0.00 0.00 70 1019.9
20260905204343 73 290 4.0 5.0 0.00 0.00 0.00 71 1019.9
20260905203215 72 300 5.0 5.0 0.00 0.00 0.00 71 1019.9
20260905201959 72 304 4.0 6.0 0.00 0.00 0.00 71 1019.9
20260905200817 73 301 5.0 5.0 0.00 0.00 0.00 69 1019.8
20260905195650 73 284 5.0 7.0 0.00 0.00 0.00 69 1019.7
20260905194522 74 318 4.0 6.0 0.00 0.00 0.00 73 1019.5
20260905193354 75 302 5.0 7.0 0.00 0.00 0.00 70 1019.4
20260905192137 75 306 5.0 6.0 0.00 0.00 0.00 65 1019.1
20260905190956 74 311 3.0 4.0 0.00 0.00 0.00 69 1019.0
20260905185829 75 318 4.0 5.0 0.00 0.00 0.00 70 1018.8
20260905184701 76 294 4.0 4.0 0.00 0.00 0.00 63 1018.7
20260905183533 77 274 3.0 6.0 0.00 0.00 0.00 63 1018.5
20260905182317 77 336 4.0 6.0 0.00 0.00 0.00 61 1018.3
20260905181136 77 295 4.0 5.0 0.00 0.00 0.00 65 1018.0
20260905180008 78 340 5.0 7.0 0.00 0.00 0.00 59 1017.9
20260905174841 78 307 5.0 5.0 0.00 0.00 0.00 60 1017.7
20260905173712 77 297 3.0 5.0 0.00 0.00 0.00 62 1017.6
20260905172455 75 300 4.0 5.0 0.00 0.00 0.00 68 1017.5
20260905171314 76 306 5.0 5.0 0.00 0.00 0.00 66 1017.3
20260905170146 76 294 4.0 5.0 0.00 0.00 0.00 65 1017.2
20260905165019 76 299 5.0 5.0 0.00 0.00 0.00 67 1017.2
20260905163852 75 311 4.0 5.0 0.00 0.00 0.00 69 1017.2
20260905162635 75 299 5.0 5.0 0.00 0.00 0.00 68 1017.1
20260905161453 75 311 4.0 5.0 0.00 0.00 0.00 70 1017.0
20260905160326 76 301 4.0 5.0 0.00 0.00 0.00 68 1016.9
20260905155158 78 296 4.0 5.0 0.00 0.00 0.00 67 1016.8
20260905154031 79 294 4.0 5.0 0.00 0.00 0.00 62 1016.8
20260905152903 79 311 2.0 5.0 0.00 0.00 0.00 66 1016.7
20260905151723 82 270 2.0 4.0 0.00 0.00 0.00 59 1016.7
20260905150557 82 270 2.0 5.0 0.00 0.00 0.00 60 1016.7
20260905145415 82 271 2.0 3.0 0.00 0.00 0.00 58 1016.6
20260905144235 83 272 2.0 4.0 0.00 0.00 0.00 45 1016.6
20260905143108 85 177 2.0 4.0 0.00 0.00 0.00 48 1016.7
20260905141928 84 150 4.0 6.0 0.00 0.00 0.00 46 1016.6
20260905140748 83 96 2.0 6.0 0.00 0.00 0.00 43 1016.7
20260905135620 81 258 2.0 3.0 0.00 0.00 0.00 65 1016.7
20260905134454 82 192 2.0 2.0 0.00 0.00 0.00 60 1016.8
20260905133313 83 160 0.0 5.0 0.00 0.00 0.00 48 1016.8
20260905132133 84 138 3.0 6.0 0.00 0.00 0.00 46 1016.6
20260905130952 84 134 3.0 7.0 0.00 0.00 0.00 45 1016.8
20260905125825 83 228 2.0 7.0 0.00 0.00 0.00 47 1016.8
20260905124609 84 174 4.0 6.0 0.00 0.00 0.00 50 1016.9
20260905123416 84 210 2.0 7.0 0.00 0.00 0.00 51 1016.9
20260905122223 83 354 2.0 7.0 0.00 0.00 0.00 49 1017.1
20260905121054 83 126 5.0 7.0 0.00 0.00 0.00 51 1017.1
20260905115927 82 222 3.0 7.0 0.00 0.00 0.00 51 1017.2
20260905114710 82 92 5.0 7.0 0.00 0.00 0.00 53 1017.3
20260905113529 82 102 2.0 6.0 0.00 0.00 0.00 54 1017.3
20260905112402 82 254 3.0 5.0 0.00 0.00 0.00 53 1017.3
20260905111234 82 216 4.0 5.0 0.00 0.00 0.00 53 1017.5
20260905110106 81 264 3.0 3.0 0.00 0.00 0.00 54 1017.5
20260905104850 81 198 4.0 4.0 0.00 0.00 0.00 52 1017.5
20260905103709 81 138 2.0 5.0 0.00 0.00 0.00 53 1017.6
20260905102541 80 108 4.0 7.0 0.00 0.00 0.00 57 1017.5
20260905101413 80 126 2.0 5.0 0.00 0.00 0.00 57 1017.4
20260905100246 81 233 4.0 7.0 0.00 0.00 0.00 57 1017.6
20260905095029 81 88 3.0 4.0 0.00 0.00 0.00 58 1017.6
20260905093849 80 95 4.0 4.0 0.00 0.00 0.00 58 1017.5
20260905092721 79 108 0.0 2.0 0.00 0.00 0.00 60 1017.5
20260905091553 79 204 2.0 4.0 0.00 0.00 0.00 61 1017.7
20260905090427 78 210 2.0 5.0 0.00 0.00 0.00 63 1017.5
20260905085210 78 204 4.0 5.0 0.00 0.00 0.00 63 1017.4
20260905084029 78 96 2.0 3.0 0.00 0.00 0.00 66 1017.3
20260905082901 78 96 2.0 2.0 0.00 0.00 0.00 67 1017.2
20260905081735 77 96 2.0 4.0 0.00 0.00 0.00 70 1017.1
20260905080606 78 104 0.0 2.0 0.00 0.00 0.00 70 1017.1
20260905075350 77 104 3.0 4.0 0.00 0.00 0.00 70 1017.0
20260905074208 77 104 0.0 4.0 0.00 0.00 0.00 67 1016.8